Time;durP1;ratioP1;P1;durP2;ratioP2;P2;SDS_P1;SDS_P2;PMS_P1;PMS_P2;Temp;Humidity;BMP_temperature;BMP_pressure;BME280_temperature;BME280_humidity;BME280_pressure;Samples;Min_cycle;Max_cycle;Signal;HPM_P1;HPM_P2
2021/11/23 00:01:37;;;;;;;8.73;3.47;;;;;;;-145.18;100.00;60484.78;5035214;28;20078;-69
2021/11/23 00:04:04;;;;;;;7.93;3.63;;;;;;;-145.18;100.00;60484.78;5033562;28;20665;-69
2021/11/23 00:06:33;;;;;;;8.27;3.37;;;;;;;-145.18;100.00;60484.78;5033008;28;20035;-69
2021/11/23 00:08:58;;;;;;;7.17;3.40;;;;;;;-145.18;100.00;60484.78;5036194;28;20757;-70
2021/11/23 00:11:24;;;;;;;8.10;3.20;;;;;;;-145.18;100.00;60484.78;5027050;28;20362;-69
2021/11/23 00:13:49;;;;;;;7.60;3.30;;;;;;;-145.18;100.00;60484.78;5030847;28;20079;-69
2021/11/23 00:16:15;;;;;;;8.60;3.50;;;;;;;-145.18;100.00;60484.78;5028572;28;20579;-72
2021/11/23 00:18:40;;;;;;;10.90;3.37;;;;;;;-145.18;100.00;60484.78;5039785;28;20037;-72
2021/11/23 00:21:06;;;;;;;5.47;3.00;;;;;;;-145.18;100.00;60484.78;5035666;28;20118;-72
2021/11/23 00:23:31;;;;;;;8.53;3.40;;;;;;;-145.18;100.00;60484.78;5033475;28;20037;-72
2021/11/23 00:25:57;;;;;;;5.37;3.00;;;;;;;-145.18;100.00;60484.78;5039985;28;20428;-72
2021/11/23 00:28:22;;;;;;;8.33;3.20;;;;;;;-145.18;100.00;60484.78;5034671;28;20033;-72
2021/11/23 00:30:48;;;;;;;10.57;3.10;;;;;;;-145.18;100.00;60484.78;5036837;28;20036;-72
2021/11/23 00:33:14;;;;;;;9.37;3.50;;;;;;;-145.18;100.00;60484.78;5042454;28;20024;-72
2021/11/23 00:35:40;;;;;;;8.13;3.53;;;;;;;-145.18;100.00;60484.78;5025947;28;20029;-72
2021/11/23 00:38:05;;;;;;;6.33;3.23;;;;;;;-145.18;100.00;60484.78;5038379;28;20283;-72
2021/11/23 00:40:31;;;;;;;6.90;3.50;;;;;;;-145.18;100.00;60484.78;5043770;28;20108;-72
2021/11/23 00:43:03;;;;;;;9.40;4.07;;;;;;;-145.18;100.00;60484.78;5036426;28;20653;-71
2021/11/23 00:45:28;;;;;;;10.73;3.83;;;;;;;-145.18;100.00;60484.78;5042441;28;20086;-71
2021/11/23 00:47:54;;;;;;;15.77;4.77;;;;;;;-145.18;100.00;60484.78;5036233;28;20032;-71
2021/11/23 00:50:19;;;;;;;8.03;3.93;;;;;;;-145.18;100.00;60484.78;5036910;28;20029;-71
2021/11/23 00:52:45;;;;;;;9.10;3.40;;;;;;;-145.18;100.00;60484.78;5035908;28;20033;-71
2021/11/23 00:55:11;;;;;;;11.00;4.07;;;;;;;-145.18;100.00;60484.78;5043523;28;20508;-71
2021/11/23 00:57:36;;;;;;;7.87;3.40;;;;;;;-145.18;100.00;60484.78;5035789;28;20409;-71
2021/11/23 01:00:05;;;;;;;8.70;3.67;;;;;;;-145.18;100.00;60484.78;5037922;28;20025;-71
2021/11/23 01:02:30;;;;;;;8.97;3.87;;;;;;;-145.18;100.00;60484.78;5038523;28;20047;-71
2021/11/23 01:04:56;;;;;;;7.07;3.30;;;;;;;-145.18;100.00;60484.78;5036940;28;20513;-71
2021/11/23 01:07:21;;;;;;;8.90;3.53;;;;;;;-145.18;100.00;60484.78;5034595;28;20029;-71
2021/11/23 01:09:47;;;;;;;6.90;4.07;;;;;;;-145.18;100.00;60484.78;5040932;28;20020;-71
2021/11/23 01:12:12;;;;;;;6.73;3.50;;;;;;;-145.18;100.00;60484.78;5043025;28;20039;-71
2021/11/23 01:14:38;;;;;;;13.43;4.17;;;;;;;-145.18;100.00;60484.78;5044371;28;20029;-71
2021/11/23 01:17:04;;;;;;;9.47;4.13;;;;;;;-145.18;100.00;60484.78;5042176;28;20032;-71
2021/11/23 01:19:30;;;;;;;7.23;3.63;;;;;;;-145.18;100.00;60484.78;5023825;28;20034;-71
2021/11/23 01:21:55;;;;;;;7.93;3.43;;;;;;;-145.18;100.00;60484.78;5035352;28;20039;-71
2021/11/23 01:24:21;;;;;;;10.43;4.27;;;;;;;-145.18;100.00;60484.78;5045268;28;20024;-71
2021/11/23 01:26:47;;;;;;;12.20;5.03;;;;;;;-145.18;100.00;60484.78;5041798;28;20032;-71
2021/11/23 01:29:12;;;;;;;10.10;3.80;;;;;;;-145.18;100.00;60484.78;5041719;28;20024;-71
2021/11/23 01:31:38;;;;;;;11.27;3.90;;;;;;;-145.18;100.00;60484.78;5037909;28;20123;-71
2021/11/23 01:34:04;;;;;;;8.70;3.77;;;;;;;-145.18;100.00;60484.78;5038889;28;20222;-71
2021/11/23 01:36:30;;;;;;;10.53;4.27;;;;;;;-145.18;100.00;60484.78;5040103;28;20036;-71
2021/11/23 01:38:55;;;;;;;7.83;3.80;;;;;;;-145.18;100.00;60484.78;5034454;28;20033;-71
2021/11/23 01:41:23;;;;;;;13.57;4.70;;;;;;;-145.18;100.00;60484.78;5043371;28;20570;-71
2021/11/23 01:43:48;;;;;;;8.50;3.70;;;;;;;-145.18;100.00;60484.78;5030180;28;20100;-71
2021/11/23 01:46:13;;;;;;;8.07;4.00;;;;;;;-145.18;100.00;60484.78;5039775;28;20676;-71
2021/11/23 01:48:39;;;;;;;8.67;4.13;;;;;;;-145.18;100.00;60484.78;5040085;28;20039;-71
2021/11/23 01:51:05;;;;;;;9.57;4.93;;;;;;;-145.18;100.00;60484.78;5033822;28;20105;-71
2021/11/23 01:53:31;;;;;;;9.13;4.60;;;;;;;-145.18;100.00;60484.78;5033133;28;20064;-71
2021/11/23 01:55:57;;;;;;;9.93;4.40;;;;;;;-145.18;100.00;60484.78;5032311;28;20033;-71
2021/11/23 01:58:22;;;;;;;10.93;4.60;;;;;;;-145.18;100.00;60484.78;5032890;28;20086;-71
2021/11/23 02:00:48;;;;;;;14.27;4.07;;;;;;;-145.18;100.00;60484.78;5038866;28;20469;-70
2021/11/23 02:03:15;;;;;;;7.87;4.13;;;;;;;-145.18;100.00;60484.78;5043039;22;20032;-69
2021/11/23 02:05:40;;;;;;;8.33;4.90;;;;;;;-145.18;100.00;60484.78;5055579;28;20098;-70
2021/11/23 02:08:07;;;;;;;12.93;5.37;;;;;;;-145.18;100.00;60484.78;5056381;28;20032;-70
2021/11/23 02:10:33;;;;;;;12.07;5.13;;;;;;;-145.18;100.00;60484.78;5060266;28;20036;-70
2021/11/23 02:12:59;;;;;;;11.03;5.60;;;;;;;-145.18;100.00;60484.78;5060937;28;20180;-70
2021/11/23 02:15:25;;;;;;;16.00;5.47;;;;;;;-145.18;100.00;60484.78;5058609;28;20112;-70
2021/11/23 02:17:54;;;;;;;13.07;5.53;;;;;;;-145.18;100.00;60484.78;5061220;28;20024;-69
2021/11/23 02:20:22;;;;;;;11.90;5.60;;;;;;;-145.18;100.00;60484.78;5060117;28;20055;-69
2021/11/23 02:22:49;;;;;;;12.77;5.90;;;;;;;-145.18;100.00;60484.78;5059897;28;20025;-70
2021/11/23 02:25:17;;;;;;;12.90;5.60;;;;;;;-145.18;100.00;60484.78;5057970;28;20036;-69
2021/11/23 02:27:44;;;;;;;11.60;6.27;;;;;;;-145.18;100.00;60484.78;5059540;28;20036;-70
2021/11/23 02:30:11;;;;;;;10.67;5.33;;;;;;;-145.18;100.00;60484.78;5059449;28;20496;-69
2021/11/23 02:32:38;;;;;;;9.90;5.53;;;;;;;-145.18;100.00;60484.78;5059170;28;20473;-69
2021/11/23 02:35:04;;;;;;;13.50;6.60;;;;;;;-145.18;100.00;60484.78;5059950;28;20159;-69
2021/11/23 02:37:29;;;;;;;17.33;5.87;;;;;;;-145.18;100.00;60484.78;5059532;28;20351;-70
2021/11/23 02:39:55;;;;;;;15.00;7.20;;;;;;;-145.18;100.00;60484.78;5055063;28;20708;-69
2021/11/23 02:42:20;;;;;;;15.63;6.97;;;;;;;-145.18;100.00;60484.78;5059221;28;20038;-70
2021/11/23 02:44:45;;;;;;;16.10;6.60;;;;;;;-145.18;100.00;60484.78;5058599;28;20183;-69
2021/11/23 02:47:11;;;;;;;14.70;7.07;;;;;;;-145.18;100.00;60484.78;5057099;28;20423;-70
2021/11/23 02:49:36;;;;;;;13.53;6.80;;;;;;;-145.18;100.00;60484.78;5056121;28;20074;-69
2021/11/23 02:52:03;;;;;;;15.47;7.33;;;;;;;-145.18;100.00;60484.78;5059041;28;20628;-69
2021/11/23 02:54:28;;;;;;;14.97;7.27;;;;;;;-145.18;100.00;60484.78;5059098;28;20094;-69
2021/11/23 02:56:53;;;;;;;14.17;7.07;;;;;;;-145.18;100.00;60484.78;5059753;28;20079;-69
2021/11/23 02:59:19;;;;;;;19.30;7.43;;;;;;;-145.18;100.00;60484.78;5059397;28;20705;-70
2021/11/23 03:01:45;;;;;;;20.20;7.33;;;;;;;-145.18;100.00;60484.78;5058949;28;20024;-70
2021/11/23 03:04:10;;;;;;;18.47;7.37;;;;;;;-145.18;100.00;60484.78;5058071;28;20044;-70
2021/11/23 03:06:35;;;;;;;14.73;7.30;;;;;;;-145.18;100.00;60484.78;5059211;28;20111;-69
2021/11/23 03:09:01;;;;;;;13.50;7.27;;;;;;;-145.18;100.00;60484.78;5055319;28;20221;-69
2021/11/23 03:11:26;;;;;;;19.80;7.70;;;;;;;-145.18;100.00;60484.78;5058658;28;20021;-69
2021/11/23 03:13:52;;;;;;;16.00;7.37;;;;;;;-145.18;100.00;60484.78;5058787;28;20032;-69
2021/11/23 03:16:18;;;;;;;16.47;7.77;;;;;;;-145.18;100.00;60484.78;5057196;28;20025;-69
2021/11/23 03:18:44;;;;;;;21.73;7.40;;;;;;;-145.18;100.00;60484.78;5059369;28;20040;-69
2021/11/23 03:21:09;;;;;;;17.87;7.87;;;;;;;-145.18;100.00;60484.78;5059076;28;20399;-69
2021/11/23 03:23:35;;;;;;;19.23;7.97;;;;;;;-145.18;100.00;60484.78;5058551;28;20492;-69
2021/11/23 03:26:00;;;;;;;16.97;7.77;;;;;;;-145.18;100.00;60484.78;5052164;28;20301;-69
2021/11/23 03:28:26;;;;;;;19.77;8.67;;;;;;;-145.18;100.00;60484.78;5058852;28;20032;-69
2021/11/23 03:30:52;;;;;;;20.80;8.63;;;;;;;-145.18;100.00;60484.78;5057559;28;20131;-69
2021/11/23 03:33:19;;;;;;;21.17;7.90;;;;;;;-145.18;100.00;60484.78;5058512;28;20557;-69
2021/11/23 03:35:45;;;;;;;22.23;8.83;;;;;;;-145.18;100.00;60484.78;5058901;28;20517;-66
2021/11/23 03:38:13;;;;;;;21.03;9.10;;;;;;;-145.18;100.00;60484.78;5058749;28;20028;-66
2021/11/23 03:40:40;;;;;;;24.77;10.33;;;;;;;-145.18;100.00;60484.78;5057104;28;20169;-67
2021/11/23 03:43:07;;;;;;;21.90;9.27;;;;;;;-145.18;100.00;60484.78;5058333;28;20028;-66
2021/11/23 03:45:34;;;;;;;25.83;9.63;;;;;;;-145.18;100.00;60484.78;5051170;28;20044;-67
2021/11/23 03:48:00;;;;;;;18.23;8.40;;;;;;;-145.18;100.00;60484.78;5058799;28;20685;-66
2021/11/23 03:50:27;;;;;;;20.33;8.90;;;;;;;-145.18;100.00;60484.78;5054565;28;20055;-66
2021/11/23 03:52:54;;;;;;;16.47;8.13;;;;;;;-145.18;100.00;60484.78;5059201;28;20028;-69
2021/11/23 03:55:20;;;;;;;19.07;8.23;;;;;;;-145.18;100.00;60484.78;5057768;28;20036;-70
2021/11/23 03:57:49;;;;;;;17.63;8.13;;;;;;;-145.18;100.00;60484.78;5059017;28;20615;-69
2021/11/23 04:00:17;;;;;;;14.67;7.70;;;;;;;-145.18;100.00;60484.78;5058237;28;20025;-70
2021/11/23 04:02:45;;;;;;;18.43;7.63;;;;;;;-145.18;100.00;60484.78;5058814;28;20124;-69
2021/11/23 04:05:11;;;;;;;20.17;7.83;;;;;;;-145.18;100.00;60484.78;5055723;28;20049;-69
2021/11/23 04:07:40;;;;;;;17.27;8.47;;;;;;;-145.18;100.00;60484.78;5058530;28;20098;-69
2021/11/23 04:10:10;;;;;;;17.03;8.67;;;;;;;-145.18;100.00;60484.78;5054613;28;20311;-69
2021/11/23 04:12:35;;;;;;;18.00;8.67;;;;;;;-145.18;100.00;60484.78;5058106;28;20032;-69
2021/11/23 04:15:02;;;;;;;22.73;9.23;;;;;;;-145.18;100.00;60484.78;5057864;28;20059;-69
2021/11/23 04:17:28;;;;;;;22.23;8.63;;;;;;;-145.18;100.00;60484.78;5057698;28;20062;-69
2021/11/23 04:19:53;;;;;;;22.60;9.33;;;;;;;-145.18;100.00;60484.78;5058643;28;20062;-69
2021/11/23 04:22:18;;;;;;;25.83;9.00;;;;;;;-145.18;100.00;60484.78;5058549;28;20521;-69
2021/11/23 04:24:44;;;;;;;20.30;8.27;;;;;;;-145.18;100.00;60484.78;5057969;28;20071;-69
2021/11/23 04:27:09;;;;;;;20.23;8.80;;;;;;;-145.18;100.00;60484.78;5057577;28;20035;-69
2021/11/23 04:29:35;;;;;;;20.07;9.03;;;;;;;-145.18;100.00;60484.78;5058356;28;20481;-69
2021/11/23 04:32:00;;;;;;;21.77;9.47;;;;;;;-145.18;100.00;60484.78;5057883;28;20028;-69
2021/11/23 04:34:26;;;;;;;21.53;9.93;;;;;;;-145.18;100.00;60484.78;5057166;28;20465;-69
2021/11/23 04:36:51;;;;;;;22.03;9.37;;;;;;;-145.18;100.00;60484.78;5056062;28;20100;-69
2021/11/23 04:39:17;;;;;;;19.43;9.13;;;;;;;-145.18;100.00;60484.78;5056007;28;20067;-69
2021/11/23 04:41:43;;;;;;;25.07;9.67;;;;;;;-145.18;100.00;60484.78;5056957;28;20024;-69
2021/11/23 04:44:09;;;;;;;24.33;9.40;;;;;;;-145.18;100.00;60484.78;5057426;28;20458;-69
2021/11/23 04:46:34;;;;;;;26.20;9.33;;;;;;;-145.18;100.00;60484.78;5057043;28;20307;-69
2021/11/23 04:49:00;;;;;;;21.90;9.20;;;;;;;-145.18;100.00;60484.78;5056853;28;20507;-70
2021/11/23 04:51:26;;;;;;;25.33;8.97;;;;;;;-145.18;100.00;60484.78;5051491;28;20056;-69
2021/11/23 04:53:52;;;;;;;28.93;10.73;;;;;;;-145.18;100.00;60484.78;5057193;28;20076;-69
2021/11/23 04:56:17;;;;;;;27.87;9.67;;;;;;;-145.18;100.00;60484.78;5057097;28;20024;-69
2021/11/23 04:58:44;;;;;;;24.30;8.93;;;;;;;-145.18;100.00;60484.78;5058078;28;20277;-69
2021/11/23 05:01:10;;;;;;;24.37;9.57;;;;;;;-145.18;100.00;60484.78;5056466;28;20268;-69
2021/11/23 05:03:35;;;;;;;28.33;10.03;;;;;;;-145.18;100.00;60484.78;5060776;28;20093;-69
2021/11/23 05:06:00;;;;;;;25.30;9.60;;;;;;;-145.18;100.00;60484.78;5060944;28;20032;-69
2021/11/23 05:08:26;;;;;;;35.27;10.60;;;;;;;-145.18;100.00;60484.78;5061518;28;20358;-69
2021/11/23 05:10:51;;;;;;;34.87;10.30;;;;;;;-145.18;100.00;60484.78;5060775;28;20277;-69
2021/11/23 05:13:17;;;;;;;31.97;10.43;;;;;;;-145.18;100.00;60484.78;5060958;28;20021;-70
2021/11/23 05:15:42;;;;;;;32.57;9.40;;;;;;;-145.18;100.00;60484.78;5058846;28;20024;-69
2021/11/23 05:18:08;;;;;;;31.83;9.63;;;;;;;-145.18;100.00;60484.78;5061022;28;20039;-70
2021/11/23 05:20:33;;;;;;;27.00;9.03;;;;;;;-145.18;100.00;60484.78;5060968;28;20055;-69
2021/11/23 05:22:59;;;;;;;31.43;9.57;;;;;;;-145.18;100.00;60484.78;5061213;28;20043;-69
2021/11/23 05:25:24;;;;;;;31.23;9.87;;;;;;;-145.18;100.00;60484.78;5061598;28;20029;-69
2021/11/23 05:27:49;;;;;;;27.73;9.30;;;;;;;-145.18;100.00;60484.78;5061949;28;20083;-69
2021/11/23 05:30:15;;;;;;;31.23;9.83;;;;;;;-145.18;100.00;60484.78;5060977;28;20032;-69
2021/11/23 05:32:42;;;;;;;28.60;8.83;;;;;;;-145.18;100.00;60484.78;5061106;28;20070;-69
2021/11/23 05:35:09;;;;;;;30.27;9.23;;;;;;;-145.18;100.00;60484.78;5060833;28;20258;-68
2021/11/23 05:37:35;;;;;;;30.27;9.63;;;;;;;-145.18;100.00;60484.78;5060023;28;20523;-68
2021/11/23 05:40:00;;;;;;;33.17;10.10;;;;;;;-145.18;100.00;60484.78;5061203;28;20032;-68
2021/11/23 05:42:26;;;;;;;30.30;9.53;;;;;;;-145.18;100.00;60484.78;5060797;28;20021;-68
2021/11/23 05:44:52;;;;;;;28.23;8.83;;;;;;;-145.18;100.00;60484.78;5060085;28;20332;-70
2021/11/23 05:47:17;;;;;;;31.87;9.00;;;;;;;-145.18;100.00;60484.78;5054948;28;20220;-67
2021/11/23 05:49:43;;;;;;;25.10;8.83;;;;;;;-145.18;100.00;60484.78;5058733;28;20083;-70
2021/11/23 05:52:09;;;;;;;27.20;8.60;;;;;;;-145.18;100.00;60484.78;5058415;28;20047;-70
2021/11/23 05:54:34;;;;;;;29.37;8.37;;;;;;;-145.18;100.00;60484.78;5057740;28;20043;-70
2021/11/23 05:57:01;;;;;;;26.67;8.43;;;;;;;-145.18;100.00;60484.78;5057330;28;20039;-68
2021/11/23 05:59:26;;;;;;;28.37;8.70;;;;;;;-145.18;100.00;60484.78;5060316;28;20123;-68
2021/11/23 06:01:52;;;;;;;24.97;8.23;;;;;;;-145.18;100.00;60484.78;5057248;28;20234;-70
2021/11/23 06:04:17;;;;;;;29.77;8.13;;;;;;;-145.18;100.00;60484.78;5059808;28;20040;-68
2021/11/23 06:06:43;;;;;;;24.67;7.63;;;;;;;-145.18;100.00;60484.78;5060040;28;20112;-68
2021/11/23 06:09:08;;;;;;;29.13;7.77;;;;;;;-145.18;100.00;60484.78;5060031;28;20036;-68
2021/11/23 06:11:34;;;;;;;32.63;9.33;;;;;;;-145.18;100.00;60484.78;5060291;28;20422;-68
2021/11/23 06:14:00;;;;;;;27.07;8.23;;;;;;;-145.18;100.00;60484.78;5056017;28;20507;-68
2021/11/23 06:16:26;;;;;;;22.00;7.40;;;;;;;-145.18;100.00;60484.78;5053654;28;20028;-68
2021/11/23 06:18:52;;;;;;;24.37;7.23;;;;;;;-145.18;100.00;60484.78;5059858;28;20043;-70
2021/11/23 06:21:19;;;;;;;28.10;7.80;;;;;;;-145.18;100.00;60484.78;5060047;28;20024;-68
2021/11/23 06:23:45;;;;;;;32.83;8.63;;;;;;;-145.18;100.00;60484.78;5059099;28;20418;-68
2021/11/23 06:26:10;;;;;;;31.27;8.10;;;;;;;-145.18;100.00;60484.78;5059799;28;20016;-68
2021/11/23 06:28:36;;;;;;;27.60;8.03;;;;;;;-145.18;100.00;60484.78;5059946;28;20044;-68
2021/11/23 06:31:01;;;;;;;30.90;7.60;;;;;;;-145.18;100.00;60484.78;5058566;28;20347;-68
2021/11/23 06:33:26;;;;;;;27.50;8.50;;;;;;;-145.18;100.00;60484.78;5060081;28;20029;-68
2021/11/23 06:35:52;;;;;;;29.67;7.33;;;;;;;-145.18;100.00;60484.78;5059325;28;20016;-68
2021/11/23 06:38:17;;;;;;;30.90;8.10;;;;;;;-145.18;100.00;60484.78;5060024;28;20052;-68
2021/11/23 06:40:43;;;;;;;30.87;8.20;;;;;;;-145.18;100.00;60484.78;5059132;28;20104;-68
2021/11/23 06:43:10;;;;;;;33.77;10.13;;;;;;;-145.18;100.00;60484.78;5052304;28;20024;-68
2021/11/23 06:45:37;;;;;;;28.33;7.97;;;;;;;-145.18;100.00;60484.78;5059881;28;20550;-68
2021/11/23 06:48:03;;;;;;;31.47;7.87;;;;;;;-145.18;100.00;60484.78;5058725;28;20038;-68
2021/11/23 06:50:32;;;;;;;28.77;7.00;;;;;;;-145.18;100.00;60484.78;5057723;28;20017;-68
2021/11/23 06:53:06;;;;;;;28.20;7.00;;;;;;;-145.18;100.00;60484.78;5058876;28;20241;-68
2021/11/23 06:55:32;;;;;;;28.77;6.77;;;;;;;-145.18;100.00;60484.78;5056069;28;20115;-68
2021/11/23 06:57:58;;;;;;;35.90;6.87;;;;;;;-145.18;100.00;60484.78;5058690;28;20028;-68
2021/11/23 07:00:24;;;;;;;34.17;7.00;;;;;;;-145.18;100.00;60484.78;5058861;28;20012;-68
2021/11/23 07:02:50;;;;;;;31.60;6.93;;;;;;;-145.18;100.00;60484.78;5052248;28;20023;-68
2021/11/23 07:05:16;;;;;;;26.73;6.77;;;;;;;-145.18;100.00;60484.78;5058202;28;20044;-68
2021/11/23 07:07:42;;;;;;;30.90;7.73;;;;;;;-145.18;100.00;60484.78;5058437;28;20051;-68
2021/11/23 07:10:10;;;;;;;28.83;6.57;;;;;;;-145.18;100.00;60484.78;5057922;28;20307;-68
2021/11/23 07:12:37;;;;;;;26.20;5.63;;;;;;;-145.18;100.00;60484.78;5057089;28;20024;-68
2021/11/23 07:15:04;;;;;;;27.43;6.27;;;;;;;-145.18;100.00;60484.78;5058304;28;20024;-70
2021/11/23 07:17:29;;;;;;;28.47;5.67;;;;;;;-145.18;100.00;60484.78;5058460;28;20434;-68
2021/11/23 07:19:55;;;;;;;30.70;6.30;;;;;;;-145.18;100.00;60484.78;5058310;28;20067;-68
2021/11/23 07:22:21;;;;;;;32.47;6.53;;;;;;;-145.18;100.00;60484.78;5056850;28;20681;-68
2021/11/23 07:24:46;;;;;;;32.73;7.20;;;;;;;-145.18;100.00;60484.78;5053692;28;20024;-68
2021/11/23 07:27:12;;;;;;;25.60;6.63;;;;;;;-145.18;100.00;60484.78;5058380;28;20086;-68
2021/11/23 07:29:37;;;;;;;28.83;7.03;;;;;;;-145.18;100.00;60484.78;5055474;28;20054;-68
2021/11/23 07:32:03;;;;;;;26.97;6.73;;;;;;;-145.18;100.00;60484.78;5058404;28;20294;-68
2021/11/23 07:34:29;;;;;;;30.77;6.30;;;;;;;-145.18;100.00;60484.78;5058651;28;20032;-68
2021/11/23 07:36:54;;;;;;;33.67;6.97;;;;;;;-145.18;100.00;60484.78;5058835;28;20074;-68
2021/11/23 07:39:20;;;;;;;24.90;6.07;;;;;;;-145.18;100.00;60484.78;5058171;28;20050;-68
2021/11/23 07:41:45;;;;;;;26.57;6.10;;;;;;;-145.18;100.00;60484.78;5058078;28;20020;-68
2021/11/23 07:44:11;;;;;;;26.10;6.23;;;;;;;-145.18;100.00;60484.78;5058415;28;20116;-68
2021/11/23 07:46:37;;;;;;;27.00;5.97;;;;;;;-145.18;100.00;60484.78;5058815;28;20028;-68
2021/11/23 07:49:04;;;;;;;24.43;5.77;;;;;;;-145.18;100.00;60484.78;5055788;28;20028;-68
2021/11/23 07:51:29;;;;;;;24.20;5.97;;;;;;;-145.18;100.00;60484.78;5055738;28;20017;-68
2021/11/23 07:53:55;;;;;;;26.27;6.07;;;;;;;-145.18;100.00;60484.78;5056894;28;20393;-68
2021/11/23 07:56:21;;;;;;;25.67;6.10;;;;;;;-145.18;100.00;60484.78;5055091;28;20032;-68
2021/11/23 07:58:47;;;;;;;22.30;5.03;;;;;;;-145.18;100.00;60484.78;5056629;28;20025;-68
2021/11/23 08:01:13;;;;;;;24.20;5.43;;;;;;;-145.18;100.00;60484.78;5055769;28;20115;-68
2021/11/23 08:03:38;;;;;;;28.27;5.83;;;;;;;-145.18;100.00;60484.78;5053614;28;20416;-68
2021/11/23 08:06:04;;;;;;;24.30;6.57;;;;;;;-145.18;100.00;60484.78;5056785;28;20399;-68
2021/11/23 08:08:30;;;;;;;26.30;5.27;;;;;;;-145.18;100.00;60484.78;5047755;28;20519;-68
2021/11/23 08:10:58;;;;;;;20.47;4.70;;;;;;;-145.18;100.00;60484.78;5049687;28;20044;-68
2021/11/23 08:13:23;;;;;;;27.43;4.97;;;;;;;-145.18;100.00;60484.78;5052818;28;20648;-68
2021/11/23 08:15:49;;;;;;;20.17;4.80;;;;;;;-145.18;100.00;60484.78;5055325;28;20094;-68
2021/11/23 08:18:14;;;;;;;26.80;5.37;;;;;;;-145.18;100.00;60484.78;5052040;28;20327;-68
2021/11/23 08:20:39;;;;;;;25.33;5.10;;;;;;;-145.18;100.00;60484.78;5051885;28;20186;-68
2021/11/23 08:23:05;;;;;;;21.90;4.47;;;;;;;-145.18;100.00;60484.78;5053520;28;20033;-68
2021/11/23 08:25:31;;;;;;;21.37;5.17;;;;;;;-145.18;100.00;60484.78;5057944;28;20130;-68
2021/11/23 08:27:56;;;;;;;26.27;4.83;;;;;;;-145.18;100.00;60484.78;5059270;28;20033;-68
2021/11/23 08:30:23;;;;;;;23.50;4.63;;;;;;;-145.18;100.00;60484.78;5058327;28;20416;-68
2021/11/23 08:32:49;;;;;;;18.57;4.27;;;;;;;-145.18;100.00;60484.78;5057310;28;20028;-68
2021/11/23 08:35:15;;;;;;;22.10;4.57;;;;;;;-145.18;100.00;60484.78;5025907;28;20033;-68
2021/11/23 08:37:41;;;;;;;17.93;4.00;;;;;;;-145.18;100.00;60484.78;5042773;28;20106;-68
2021/11/23 08:40:07;;;;;;;18.03;4.37;;;;;;;-145.18;100.00;60484.78;5052095;28;20600;-68
2021/11/23 08:42:33;;;;;;;19.00;4.30;;;;;;;-145.18;100.00;60484.78;5043853;28;20017;-68
2021/11/23 08:44:59;;;;;;;16.13;3.87;;;;;;;-145.18;100.00;60484.78;5047705;28;20036;-68
2021/11/23 08:47:25;;;;;;;21.03;4.57;;;;;;;-145.18;100.00;60484.78;5047001;28;20289;-68
2021/11/23 08:49:51;;;;;;;18.30;4.40;;;;;;;-145.18;100.00;60484.78;5050916;28;20033;-68
2021/11/23 08:52:18;;;;;;;21.30;4.40;;;;;;;-145.18;100.00;60484.78;5049897;28;20063;-68
2021/11/23 08:54:44;;;;;;;14.77;4.30;;;;;;;-145.18;100.00;60484.78;5045510;28;20933;-68
2021/11/23 08:57:10;;;;;;;17.73;4.57;;;;;;;-145.18;100.00;60484.78;5047521;28;20292;-68
2021/11/23 08:59:41;;;;;;;19.63;5.13;;;;;;;-145.18;100.00;60484.78;5049877;28;20037;-68
2021/11/23 09:02:07;;;;;;;18.57;4.80;;;;;;;-145.18;100.00;60484.78;5042819;28;20024;-68
2021/11/23 09:04:34;;;;;;;15.40;4.90;;;;;;;-145.18;100.00;60484.78;5049491;28;20044;-68
2021/11/23 09:07:03;;;;;;;19.60;5.07;;;;;;;-145.18;100.00;60484.78;5051565;28;20120;-68
2021/11/23 09:09:30;;;;;;;12.27;4.17;;;;;;;-145.18;100.00;60484.78;5049593;28;20119;-68
2021/11/23 09:11:57;;;;;;;13.07;3.90;;;;;;;-145.18;100.00;60484.78;5046209;28;20117;-68
2021/11/23 09:14:24;;;;;;;10.83;3.37;;;;;;;-145.18;100.00;60484.78;5048113;28;20070;-68
2021/11/23 09:16:50;;;;;;;14.73;3.53;;;;;;;-145.18;100.00;60484.78;5048967;28;20253;-68
2021/11/23 09:19:15;;;;;;;12.27;3.87;;;;;;;-145.18;100.00;60484.78;5049869;28;20093;-68
2021/11/23 09:21:41;;;;;;;7.20;2.60;;;;;;;-145.18;100.00;60484.78;5051436;28;20059;-68
2021/11/23 09:24:06;;;;;;;11.10;3.10;;;;;;;-145.18;100.00;60484.78;5044857;28;20082;-68
2021/11/23 09:26:32;;;;;;;8.07;2.90;;;;;;;-145.18;100.00;60484.78;5045450;28;20032;-68
2021/11/23 09:28:57;;;;;;;9.77;3.53;;;;;;;-145.18;100.00;60484.78;5051532;28;20033;-68
2021/11/23 09:31:23;;;;;;;8.20;2.77;;;;;;;-145.18;100.00;60484.78;5049482;28;20067;-68
2021/11/23 09:33:49;;;;;;;13.77;3.13;;;;;;;-145.18;100.00;60484.78;5049020;28;20534;-68
2021/11/23 09:36:15;;;;;;;12.07;2.97;;;;;;;-145.18;100.00;60484.78;5050596;28;20094;-68
2021/11/23 09:38:41;;;;;;;9.37;2.60;;;;;;;-145.18;100.00;60484.78;5050629;28;20024;-68
2021/11/23 09:41:08;;;;;;;9.53;3.07;;;;;;;-145.18;100.00;60484.78;5051708;28;20512;-68
2021/11/23 09:43:34;;;;;;;8.47;2.50;;;;;;;-145.18;100.00;60484.78;5046455;28;20037;-69
2021/11/23 09:45:59;;;;;;;8.47;3.10;;;;;;;-145.18;100.00;60484.78;5051032;28;20175;-68
2021/11/23 09:48:25;;;;;;;6.30;2.70;;;;;;;-145.18;100.00;60484.78;5045430;28;20035;-68
2021/11/23 09:50:52;;;;;;;7.43;2.60;;;;;;;-145.18;100.00;60484.78;5052620;28;20033;-68
2021/11/23 09:53:19;;;;;;;11.87;3.50;;;;;;;-145.18;100.00;60484.78;5053640;28;20184;-68
2021/11/23 09:55:46;;;;;;;10.30;2.87;;;;;;;-145.18;100.00;60484.78;5050023;28;20028;-68
2021/11/23 09:58:13;;;;;;;8.47;3.00;;;;;;;-145.18;100.00;60484.78;5054207;28;20033;-68
2021/11/23 10:00:45;;;;;;;10.57;2.73;;;;;;;-145.18;100.00;60484.78;5048212;28;20074;-69
2021/11/23 10:03:24;;;;;;;7.80;3.00;;;;;;;-145.18;100.00;60484.78;5051273;28;20146;-68
2021/11/23 10:05:51;;;;;;;11.50;2.80;;;;;;;-145.18;100.00;60484.78;5053610;28;20243;-68
2021/11/23 10:08:19;;;;;;;8.00;2.90;;;;;;;-145.18;100.00;60484.78;5053745;28;20029;-68
2021/11/23 10:10:51;;;;;;;7.50;3.23;;;;;;;-145.18;100.00;60484.78;5048200;28;20293;-68
2021/11/23 10:13:20;;;;;;;6.90;2.40;;;;;;;-145.18;100.00;60484.78;5051662;28;20024;-69
2021/11/23 10:15:47;;;;;;;7.80;2.97;;;;;;;-145.18;100.00;60484.78;5047933;28;20119;-69
2021/11/23 10:18:24;;;;;;;14.23;3.00;;;;;;;-145.18;100.00;60484.78;5045001;28;20520;-69
2021/11/23 10:20:57;;;;;;;6.73;2.00;;;;;;;-145.18;100.00;60484.78;5052566;28;20551;-69
2021/11/23 10:23:30;;;;;;;7.00;2.50;;;;;;;-145.18;100.00;60484.78;5053512;28;20028;-69
2021/11/23 10:26:17;;;;;;;6.47;2.50;;;;;;;-145.18;100.00;60484.78;5044728;28;20113;-69
2021/11/23 10:28:49;;;;;;;7.70;2.47;;;;;;;-145.18;100.00;60484.78;5050512;28;20123;-69
2021/11/23 10:31:15;;;;;;;6.50;2.37;;;;;;;-145.18;100.00;60484.78;5050255;28;20032;-69
2021/11/23 10:33:42;;;;;;;6.77;1.97;;;;;;;-145.18;100.00;60484.78;5053337;28;20021;-69
2021/11/23 10:36:10;;;;;;;7.87;2.67;;;;;;;-145.18;100.00;60484.78;5052411;28;20041;-69
2021/11/23 10:38:39;;;;;;;9.07;2.27;;;;;;;-145.18;100.00;60484.78;5053413;28;20451;-69
2021/11/23 10:41:06;;;;;;;7.90;2.40;;;;;;;-145.18;100.00;60484.78;5051322;28;20617;-69
2021/11/23 10:43:33;;;;;;;7.50;2.30;;;;;;;-145.18;100.00;60484.78;5052707;28;20253;-69
2021/11/23 10:45:58;;;;;;;7.07;2.10;;;;;;;-145.18;100.00;60484.78;5048595;28;20037;-69
2021/11/23 10:48:27;;;;;;;9.30;2.90;;;;;;;-145.18;100.00;60484.78;5049514;28;20172;-69
2021/11/23 10:51:12;;;;;;;6.70;2.30;;;;;;;-145.18;100.00;60484.78;5052518;28;20028;-69
2021/11/23 10:53:42;;;;;;;5.37;2.23;;;;;;;-145.18;100.00;60484.78;5050543;28;20016;-69
2021/11/23 10:56:18;;;;;;;6.47;2.30;;;;;;;-145.18;100.00;60484.78;5049415;28;20044;-69
2021/11/23 10:58:47;;;;;;;8.60;2.73;;;;;;;-145.18;100.00;60484.78;5050749;28;20028;-69
2021/11/23 11:01:13;;;;;;;9.00;2.67;;;;;;;-145.18;100.00;60484.78;5051215;28;20460;-69